x

9418767 - North Spit, Ca (hbyc1) Weather Station

10:30pm - Fri 26th Dec 2014 All times are PST. -8 hours from GMT.

  • Wind
    6mph
  • Sea Temp 54°f
  • Air Temp 45°f
  • Sea Pressure 1025.8mb
  • 9418767 - North Spit, Ca
  • 9418767 - North Spit, Ca

More Historic Weather Station data

Upgrade to MSW Pro to gain access to the past 30 days of data for over 8000 Wavebouys and Weather Stations around the globe.

Join Pro

Comparision Forecast

View Surf forecast
   
Fri 12/26 10:30pm 6
mph
1025.8mb 54f 45f
10:24pm 5 6 mph 1025.9mb 54f 45f
10:18pm 3 6 mph 1025.9mb 54f 46f
10:12pm 6 7 mph 1025.9mb 54f 46f
10:06pm 7 9 mph 1025.9mb 54f 46f
10:00pm 6 8 mph 1026mb 54f 46f
9:36pm 8 9 mph 1025.9mb 54f 45f
9:30pm 8 10 mph 1025.9mb 54f 45f
9:24pm 9 10 mph 1025.9mb 54f 45f
9:18pm 8 9 mph 1025.9mb 54f 45f
9:12pm 7 8 mph 1025.9mb 54f 46f
9:06pm 7 8 mph 1025.8mb 54f 46f
9:00pm 6 7 mph 1025.8mb 54f 47f
8:36pm 6 8 mph 1025.6mb 55f 46f
8:30pm 7 8 mph 1025.7mb 55f 46f
8:24pm 5 6 mph 1025.7mb 55f 48f
8:18pm 6
mph
1025.6mb 55f 48f
8:12pm 5 6 mph 1025.5mb 55f 47f
8:06pm 5 6 mph 1025.5mb 55f 47f
8:00pm 3 6 mph 1025.6mb 55f 48f
7:36pm 7 8 mph 1025.4mb 55f 50f
7:30pm 8 10 mph 1025.4mb 55f 50f
7:24pm 9 11 mph 1025.4mb 55f 50f
7:18pm 10 11 mph 1025.4mb 55f 50f
7:12pm 9 11 mph 1025.4mb 55f 50f
7:06pm 8 11 mph 1025.4mb 55f 50f
7:00pm 9 10 mph 1025.5mb 55f 51f
6:36pm 8 11 mph 1025.5mb 55f 51f
6:30pm 8 18 mph 1025.4mb 55f 52f
6:24pm 18 23 mph 1025.4mb 55f 54f
6:18pm 21 24 mph 1025.4mb 55f 55f
6:12pm 22 25 mph 1025.3mb 55f 55f
6:06pm 21 25 mph 1025.2mb 55f 55f
6:00pm 23 25 mph 1025.2mb 55f 55f
5:36pm 23 25 mph 1024.9mb 55f 55f
5:30pm 22 25 mph 1024.7mb 55f 55f
5:24pm 23 25 mph 1024.7mb 55f 55f
5:18pm 23 25 mph 1024.7mb 55f 54f
5:12pm 23 26 mph 1024.7mb 55f 54f
5:06pm 22 25 mph 1024.6mb 55f 54f
5:00pm 22 25 mph 1024.5mb 55f 54f
4:36pm 23 26 mph 1024.5mb 55f 54f
4:30pm 22 25 mph 1024.5mb 55f 54f
4:24pm 22 25 mph 1024.5mb 55f 54f
4:18pm 23 26 mph 1024.5mb 55f 54f
4:12pm 21 26 mph 1024.4mb 55f 54f
4:06pm 23 26 mph 1024.4mb 55f 54f
4:00pm 23 26 mph 1024.5mb 55f 54f
3:36pm 22 24 mph 1024.1mb 55f 53f
3:30pm 22 23 mph 1024mb 55f 53f
3:24pm 20 22 mph 1024mb 55f 53f
3:18pm 21 23 mph 1024mb 55f 53f
3:12pm 22 23 mph 1023.9mb 55f 53f
3:06pm 22 23 mph 1023.9mb 55f 53f
3:00pm 21 23 mph 1023.8mb 55f 53f
2:36pm 22 23 mph 1024.2mb 55f 53f
2:30pm 22 23 mph 1024.2mb 55f 53f
2:24pm 20 23 mph 1024.2mb 55f 53f
2:18pm 20 22 mph 1024.1mb 55f 52f
2:12pm 21 22 mph 1024.2mb 55f 52f
2:06pm 20 22 mph 1024.3mb 55f 52f
2:00pm 20 22 mph 1024.4mb 55f 52f
1:36pm 21 23 mph 1024.6mb 55f 52f
1:30pm 22 24 mph 1024.6mb 55f 52f
1:24pm 22 24 mph 1024.7mb 55f 52f
1:18pm 22 24 mph 1024.7mb 55f 52f
1:12pm 22 25 mph 1024.7mb 55f 52f
1:06pm 21 24 mph - - 52f
1:00pm 22 24 mph 1024.9mb 55f 52f
12:36pm 22 24 mph 1025.1mb 55f 51f
12:30pm 21 23 mph 1025.2mb 55f 51f
12:24pm 21 23 mph 1025.4mb 55f 51f
12:18pm 18 22 mph 1025.5mb 55f 51f
12:12pm 21 22 mph 1025.6mb 55f 51f
12:06pm 21 22 mph 1025.8mb 55f 51f
12:00pm 21 23 mph 1025.9mb 55f 51f
11:36am 21 24 mph 1026.4mb 55f 51f
11:30am 20 25 mph 1026.4mb 55f 51f
11:24am 14 17 mph 1026.6mb 55f 50f
11:18am 10 14 mph 1026.7mb 55f 49f
11:12am 10 11 mph 1026.8mb 55f 49f
11:06am 9 10 mph 1026.9mb 55f 48f
11:00am 8 9 mph 1027mb 55f 47f
10:36am 6 7 mph 1027.3mb 54f 45f
10:30am 6 7 mph 1027.3mb 54f 46f
10:24am 6 8 mph 1027.3mb 54f 45f
10:18am 5 6 mph 1027.3mb 54f 45f
10:12am 5 6 mph 1027.3mb 54f 44f
10:06am 6 7 mph 1027.3mb 54f 44f
10:00am 3 5 mph 1027.2mb 53f 44f
9:36am 3 6 mph 1026.9mb 53f 42f
9:30am 5 6 mph 1026.9mb 53f 42f
9:24am 5 6 mph 1026.8mb 53f 42f
9:18am 5 6 mph 1026.8mb 53f 41f
9:12am 6 7 mph 1026.8mb 53f 40f
9:06am 7 8 mph 1026.8mb 53f 40f
9:00am 7 8 mph 1026.8mb 53f 40f
8:36am 6 7 mph 1026.7mb 54f 41f
8:30am 6 7 mph 1026.7mb 54f 41f
8:24am 6 7 mph 1026.6mb 54f 41f
8:18am 6 8 mph 1026.6mb 54f 40f
8:12am 7 8 mph 1026.6mb 54f 40f
8:06am 6 7 mph 1026.7mb 54f 40f
8:00am 6 7 mph 1026.6mb 54f 40f
7:36am 5 6 mph 1026.3mb 54f 41f
7:30am 5 6 mph 1026.3mb 54f 41f
7:24am 5 6 mph 1026.3mb 54f 41f
7:18am 6 7 mph 1026.2mb 55f 41f
7:12am 6 7 mph 1026.2mb 55f 41f
7:06am 6 7 mph 1026.3mb 55f 42f
7:00am 5 6 mph 1026.2mb 55f 41f
6:36am 5 6 mph 1026mb 55f 42f
6:30am 5 6 mph 1026mb 55f 41f
6:24am 5 6 mph 1025.9mb 55f 41f
6:18am 6 7 mph 1025.9mb 55f 41f
6:12am 6 7 mph 1025.8mb 55f 41f
6:06am 6 7 mph 1025.8mb 55f 42f
6:00am 6 8 mph 1025.7mb 55f 41f
5:36am 6 7 mph - - 41f
5:30am 6 8 mph 1025.4mb 55f 40f
5:24am 6 7 mph 1025.4mb 55f 40f
5:18am 6 8 mph 1025.4mb 55f 39f
5:12am 7 9 mph 1025.4mb 55f 40f
5:06am 7 8 mph 1025.3mb 55f 40f
5:00am 8 9 mph - - 40f
4:36am 5 7 mph 1025.6mb 56f 42f
4:30am 6 7 mph 1025.5mb 56f 42f
4:24am 6 7 mph 1025.6mb 56f 42f
4:18am 6 7 mph 1025.5mb 56f 42f
4:12am 6 7 mph 1025.6mb 56f 42f
4:06am 6 7 mph 1025.6mb 56f 43f
4:00am 5 6 mph 1025.6mb 56f 43f
3:36am 5 6 mph 1025.5mb 56f 43f
3:30am 6 7 mph 1025.5mb 56f 43f
3:24am 6 7 mph 1025.5mb 56f 43f
3:18am 7 9 mph 1025.5mb 56f 43f
3:12am 7 8 mph 1025.5mb 56f 42f
3:06am 8 9 mph 1025.4mb 56f 42f
3:00am 7 9 mph 1025.5mb 56f 42f
2:36am 6 7 mph 1025.6mb 56f 43f
2:30am 6 7 mph 1025.5mb 56f 42f
2:24am 6
mph
1025.5mb 56f 42f
2:18am 6 7 mph 1025.5mb 56f 42f
2:12am 6 7 mph 1025.4mb 56f 43f
2:06am 6 7 mph 1025.4mb 56f 43f
2:00am 6 7 mph 1025.3mb 56f 43f
1:36am 5 7 mph 1025.1mb 56f 43f
1:30am 5 7 mph 1025mb 56f 43f
1:24am 6 7 mph 1025mb 56f 42f
1:18am 6 7 mph 1025mb 56f 42f
1:12am 6 7 mph 1025mb 56f 42f
1:06am 6 8 mph 1025mb 56f 42f
1:00am 7 9 mph 1024.9mb 56f 42f
12:36am 7 9 mph 1024.8mb 56f 43f
12:30am 8 10 mph 1024.9mb 56f 43f
12:24am 8
mph
1025mb 56f 44f
12:18am 8 9 mph 1025mb 56f 45f
12:12am 8 9 mph 1025mb 56f 46f
12:06am 6 7 mph 1024.9mb 56f 46f
12:00am 6 7 mph 1024.9mb 56f 45f
Thu 12/25 11:36pm 7 8 mph 1025mb 55f 45f
11:30pm 6 8 mph 1025mb 55f 45f
11:24pm 6 9 mph 1025mb 55f 45f
11:18pm 9 10 mph 1025.1mb 55f 46f
11:12pm 10 11 mph 1025.1mb 55f 47f
11:06pm 10 13 mph 1025.1mb 55f 48f
11:00pm 11 14 mph 1025.2mb 55f 48f
10:54pm 11 14 mph 1025.3mb 55f 48f
10:48pm 10 13 mph 1025.3mb 55f 47f
10:36pm 16 20 mph 1025.3mb 55f 49f
10:30pm 16
mph
1025.2mb 55f 49f
10:24pm 18 22 mph 1025.2mb 55f 49f
10:18pm 18 22 mph 1025.1mb 55f 50f
10:12pm 20 22 mph 1025.1mb 55f 50f
10:06pm 17 22 mph 1025.1mb 55f 49f
10:00pm 18 21 mph 1025.2mb 55f 49f
9:54pm 18 22 mph 1025.2mb 55f 50f
9:48pm 21 29 mph 1025.2mb 55f 51f
9:36pm 28 30 mph 1025.2mb 55f 51f
9:30pm 26 30 mph 1025.3mb 55f 52f
9:24pm 29 32 mph 1025.3mb 55f 51f
9:18pm 26 30 mph 1025.4mb 55f 52f
9:12pm 28 31 mph 1025.3mb 55f 52f
9:06pm 25 30 mph 1025.4mb 55f 52f
9:00pm 25 28 mph 1025.4mb 55f 52f
8:54pm 25 30 mph 1025.4mb 55f 52f
8:48pm 25 29 mph 1025.4mb 55f 52f
8:36pm 26 30 mph 1025.4mb 55f 52f
8:30pm 28 31 mph 1025.4mb 55f 52f
8:24pm 26 30 mph 1025.3mb 55f 52f
8:18pm 25 31 mph 1025.2mb 55f 52f
8:12pm 26 31 mph - - 52f
8:06pm 28 33 mph 1025mb 56f 52f
8:00pm 29 33 mph 1025mb 56f 52f
7:54pm 29 33 mph 1024.9mb 56f 53f
7:48pm 32 37 mph 1024.9mb 56f 53f
7:36pm 32 36 mph 1024.9mb 56f 53f
7:30pm 30 34 mph 1024.8mb 56f 53f
7:24pm 31 36 mph 1024.7mb 56f 53f
7:18pm 29 34 mph 1024.6mb 56f 53f
7:12pm 30 34 mph 1024.6mb 56f 53f
7:06pm 31 36 mph 1024.5mb 56f 53f
7:00pm 30 34 mph 1024.5mb 56f 53f
6:54pm 29 34 mph 1024.6mb 56f 53f
6:48pm 31 36 mph 1024.5mb 56f 53f
6:36pm 29 32 mph 1024.5mb 56f 53f
6:30pm 30 34 mph 1024.3mb 56f 53f
6:24pm 30 37 mph 1024.3mb 56f 53f
6:18pm 28 34 mph 1024.3mb 56f 53f
6:12pm 29 33 mph 1024.3mb 56f 53f
6:06pm 28 32 mph 1024.2mb 56f 53f
6:00pm 29 32 mph 1024.2mb 56f 53f
5:54pm 29 33 mph 1024mb 56f 53f
5:48pm 29 32 mph 1024mb 56f 53f
5:36pm 30 34 mph 1024mb 56f 53f
5:30pm 30 36 mph 1024mb 56f 53f
5:24pm 31 33 mph 1024mb 56f 53f
5:18pm 28 33 mph 1024mb 56f 53f
5:12pm 30 34 mph 1024mb 56f 53f
5:06pm 29 32 mph 1023.9mb 56f 53f
5:00pm 30 33 mph 1023.9mb 56f 53f
4:54pm 30 33 mph 1024mb 56f 53f
4:48pm 28 32 mph 1024mb 56f 53f
4:36pm 29 32 mph 1024mb 56f 53f
4:30pm 29 32 mph 1024mb 56f 53f
4:24pm 30 34 mph 1024mb 56f 53f
4:18pm 26 33 mph 1024mb 56f 53f
4:12pm 28 32 mph 1023.9mb 56f 52f
4:06pm 29 31 mph 1023.9mb 56f 52f
4:00pm 29 31 mph 1023.8mb 56f 52f
3:54pm 26 32 mph 1023.7mb 56f 52f
3:48pm 26 31 mph 1023.6mb 56f 53f
3:36pm 28 31 mph 1023.6mb 56f 52f
3:30pm 28 31 mph 1023.6mb 56f 52f
3:24pm 26 31 mph 1023.6mb 56f 52f
3:18pm 26 30 mph 1023.6mb 56f 52f
3:12pm 26 30 mph 1023.6mb 56f 52f
3:06pm 25 30 mph 1023.6mb 56f 52f
3:00pm 26 29 mph 1023.5mb 56f 52f
2:54pm 25 28 mph 1023.4mb 56f 52f
2:48pm 23 29 mph 1023.3mb 56f 53f
2:36pm 25 29 mph 1023.2mb 56f 52f
2:30pm 24 30 mph 1023.2mb 56f 52f
2:24pm 25 29 mph - - 52f
2:18pm 26 29 mph 1023.2mb 56f 52f
2:12pm 25 29 mph 1023.2mb 56f 52f
2:06pm 26 29 mph 1023.2mb 56f 52f
2:00pm 25 29 mph 1023.2mb 56f 52f
1:54pm 25 29 mph 1023.3mb 56f 51f
1:48pm 26 29 mph 1023.2mb 56f 51f
1:36pm 26 31 mph 1023.3mb 56f 51f
1:30pm 26 30 mph 1023.3mb 56f 51f
1:24pm 28 30 mph 1023.3mb 56f 51f
1:18pm 25 29 mph 1023.4mb 56f 52f
1:12pm 28 30 mph - - 51f
1:06pm 25 29 mph 1023.5mb 56f 51f
1:00pm 24 26 mph 1023.6mb 56f 52f
12:54pm 23 28 mph 1023.6mb 56f 51f
12:48pm 23 28 mph 1023.6mb 56f 51f
12:36pm 24 28 mph 1023.8mb 56f 51f
12:30pm 24 28 mph 1024mb 56f 51f
12:24pm 22 28 mph 1024.1mb 56f 51f
12:18pm 21 25 mph 1024.2mb 56f 51f
12:12pm 23 25 mph 1024.2mb 56f 50f
12:06pm 23 26 mph 1024.4mb 56f 51f
12:00pm 23 26 mph 1024.5mb 56f 51f
11:54am 25 28 mph 1024.6mb 56f 51f
11:48am 24 28 mph 1024.6mb 56f 51f
11:36am 24 28 mph 1024.8mb 56f 51f
11:30am 24 28 mph 1024.9mb 56f 51f
11:24am 23 26 mph 1024.8mb 56f 51f
11:18am 23 28 mph 1024.9mb 56f 51f
11:12am 20 22 mph 1024.9mb 56f 51f
11:06am 18 23 mph 1024.9mb 56f 51f
11:00am 21 23 mph 1025mb 56f 50f
10:54am 20 22 mph 1025mb 56f 50f
10:48am 21 23 mph 1025mb 56f 50f
10:36am 18 22 mph 1025.1mb 56f 51f
10:30am 20 22 mph 1025mb 56f 50f
10:24am 18 22 mph 1025mb 56f 50f
10:18am 18 21 mph 1025mb 56f 50f
10:12am 14 16 mph 1025mb 56f 49f
10:06am 13 15 mph 1025mb 56f 49f
10:00am 10 13 mph 1024.9mb 56f 48f
9:54am 11 15 mph 1024.9mb 56f 48f
9:48am 11 14 mph 1024.9mb 56f 49f
9:36am 11 15 mph 1024.9mb 56f 48f
9:30am 13 15 mph 1024.9mb 56f 49f
9:24am 11 14 mph 1025mb 56f 49f
9:18am 14 22 mph 1025mb 56f 49f
9:12am 20 22 mph - - 50f
9:06am 16 20 mph 1024.9mb 55f 49f
9:00am 13 16 mph 1024.7mb 55f 49f
8:54am 9 11 mph 1024.6mb 55f 48f
8:48am 8 9 mph 1024.5mb 55f 47f
8:36am 7 9 mph 1024.4mb 55f 47f
8:30am 7 8 mph 1024.4mb 55f 47f
8:24am 5 8 mph 1024.4mb 55f 46f
8:18am 3 8 mph 1024.3mb 55f 46f
8:12am 6 8 mph 1024.4mb 55f 46f
8:06am 5 10 mph 1024.4mb 55f 46f
8:00am 7 9 mph 1024.4mb 55f 46f
7:54am 6 8 mph 1024.3mb 55f 45f
7:48am 6 7 mph 1024.3mb 55f 46f
7:36am 7 9 mph 1024.3mb 55f 46f
7:30am 8 10 mph 1024.4mb 55f 46f
7:24am 7 10 mph 1024.4mb 56f 46f
7:18am 9 11 mph 1024.5mb 56f 46f
7:12am 8 10 mph 1024.5mb 56f 46f
7:06am 8 11 mph 1024.5mb 56f 46f
7:00am 8 10 mph 1024.5mb 56f 46f
6:54am 8 10 mph 1024.5mb 56f 47f
6:48am 8 11 mph - - 47f
6:36am 10 14 mph 1024.5mb 56f 47f
6:30am 8 9 mph 1024.4mb 56f 46f
6:24am 7 8 mph 1024.2mb 56f 45f
6:18am 7 9 mph 1024.1mb 56f 45f
6:12am 6 9 mph 1024mb 56f 46f
6:06am 7 9 mph 1024mb 57f 46f
6:00am 6 7 mph 1023.9mb 57f 45f
5:54am 5 7 mph - - 45f
5:48am 6 9 mph 1024mb 57f 45f
5:36am 7 9 mph 1024mb 57f 45f
5:30am 6 7 mph 1024mb 57f 45f
5:24am 6 10 mph 1023.9mb 57f 45f
5:18am 6 8 mph 1023.8mb 57f 45f
5:12am 7 8 mph 1023.8mb 57f 45f
5:06am 6 7 mph 1023.7mb 57f 47f
5:00am 7 11 mph 1023.6mb 57f 47f
4:54am 10 14 mph 1023.7mb 57f 48f
4:48am 15 18 mph 1023.8mb 57f 49f
4:36am 22 28 mph 1023.8mb 57f 50f
4:30am 17 25 mph 1023.9mb 57f 49f
4:24am 22 33 mph 1023.9mb 57f 49f
4:18am 15 18 mph 1023.8mb 57f 49f
4:12am 14 17 mph - - 49f
4:06am 14 17 mph 1023.8mb 57f 49f
4:00am 14 23 mph 1023.9mb 57f 49f
3:54am 21 28 mph 1023.9mb 57f 51f
3:48am 24 26 mph 1023.8mb 57f 50f
3:36am 21 28 mph 1023.9mb 57f 51f
3:30am 22 26 mph 1023.9mb 57f 51f
3:24am 23 28 mph 1023.9mb 57f 50f
3:18am 18 22 mph 1023.8mb 57f 50f
3:12am 18 26 mph 1023.9mb 57f 50f
3:06am 22 25 mph 1023.8mb 57f 50f
3:00am 21 26 mph 1023.7mb 57f 50f
2:54am 20 30 mph 1023.7mb 57f 50f
2:48am 24 28 mph 1023.8mb 57f 50f
2:36am 17 21 mph 1023.7mb 57f 50f
2:30am 14 17 mph 1023.7mb 57f 49f
2:24am 14 18 mph 1023.7mb 57f 49f
2:18am 14 17 mph 1023.5mb 57f 49f
2:12am 16 18 mph 1023.6mb 57f 49f
2:06am 14 17 mph 1023.5mb 57f 49f
2:00am 14 16 mph 1023.5mb 57f 49f
1:54am 13 15 mph 1023.4mb 57f 49f
1:48am 13 16 mph 1023.5mb 57f 49f
1:36am 13 15 mph 1023.6mb 57f 48f
1:30am 14 15 mph 1023.6mb 57f 48f
1:24am 16 20 mph 1023.6mb 57f 49f
1:18am 15 22 mph 1023.4mb 57f 49f
1:12am 16 21 mph 1023.2mb 57f 49f
1:06am 14 17 mph 1023.2mb 57f 48f
1:00am 14 17 mph 1023.3mb 57f 48f
12:54am 15 21 mph 1023.4mb 57f 47f
12:48am 14 21 mph 1023.7mb 57f 47f
12:36am 20 24 mph 1023.2mb 57f 50f
12:30am 23 28 mph 1023.3mb 57f 51f
12:24am 22 26 mph 1023.4mb 57f 50f
12:18am 18 22 mph 1023.5mb 57f 49f
12:12am 15 21 mph 1023.7mb 57f 48f
12:06am 21 26 mph 1023.8mb 57f 49f
12:00am 25 32 mph 1023.8mb 57f 50f
Wed 12/24 11:54pm 29 34 mph 1023.7mb 57f 50f
11:48pm 28 31 mph 1023.8mb 57f 50f
11:36pm  -  mph 1023.9mb 57f -
11:30pm  -  mph 1024mb 57f -
11:24pm  -  mph 1024mb 57f -
11:18pm  -  mph 1023.9mb 57f -
11:12pm  -  mph 1023.9mb 57f -
11:06pm  -  mph 1024mb 57f -
11:00pm  -  mph 1023.9mb 57f -
10:54pm  -  mph 1023.9mb 57f -
10:48pm  -  mph 1023.9mb 57f -
10:36pm 16 29 mph 1023.6mb 56f 49f
10:30pm 13 17 mph 1023.6mb 56f 49f
10:24pm 8 11 mph 1023.4mb 56f 48f
10:18pm 8 10 mph 1023.4mb 56f 49f
10:12pm 6 11 mph 1023.4mb 56f 48f
10:06pm 8 17 mph 1023.4mb 56f 48f
10:00pm 10 16 mph 1023.3mb 56f 48f
9:54pm 9 14 mph 1023.1mb 56f 48f
9:48pm 9 13 mph 1023.3mb 56f 48f
9:36pm  -  mph 1023mb 56f -
9:30pm  -  mph 1023mb 56f -
9:24pm  -  mph 1023mb 56f -
9:18pm  -  mph 1023mb 56f -
9:12pm  -  mph 1023mb 56f -
9:06pm  -  mph 1022.9mb 56f -
9:00pm  -  mph 1022.8mb 56f -
8:54pm  -  mph 1022.8mb 56f -
8:48pm  -  mph 1022.7mb 56f -
8:36pm 20 25 mph 1022.6mb 56f 51f
8:30pm 24 30 mph - - 51f
8:24pm 25 33 mph 1022.3mb 56f 51f
8:18pm 26 30 mph 1022.2mb 56f 51f
8:12pm 25 32 mph - - 51f
8:06pm 31 37 mph 1022.2mb 56f 51f
8:00pm 29 32 mph 1022.1mb 56f 51f
7:54pm 29 33 mph 1022.1mb 56f 50f
7:48pm 32 37 mph 1022mb 56f 50f
7:36pm 28 32 mph 1022mb 56f 50f
7:30pm 36 39 mph 1022mb 56f 49f
7:24pm 30 38 mph 1021.8mb 56f 51f
7:18pm 26 31 mph 1021.8mb 56f 50f
7:12pm 28 31 mph 1021.8mb 57f 51f
7:06pm 28 31 mph 1021.8mb 57f 51f
7:00pm 28 33 mph 1021.7mb 57f 50f
6:54pm 30 37 mph 1021.7mb 57f 51f
6:48pm 30 32 mph 1021.7mb 57f 50f
6:36pm 26 32 mph 1021.7mb 57f 50f
6:30pm 26 31 mph 1021.7mb 57f 49f
6:24pm 29 38 mph - - 49f
6:18pm 36 45 mph 1021.5mb 57f 50f
6:12pm 36 43 mph 1021mb 57f 52f
6:06pm 31 39 mph 1021.2mb 57f 51f
6:00pm 23 28 mph 1021.1mb 57f 51f
5:54pm 24 30 mph 1021.2mb 57f 50f
5:48pm 28 33 mph 1021.3mb 57f 50f
5:36pm 36 39 mph 1021mb 57f 50f
5:30pm 30 47 mph 1021mb 57f 48f
5:24pm 34 53 mph 1020.9mb 57f 51f
5:18pm 30 33 mph 1020.8mb 57f 51f
5:12pm 29 33 mph 1020.8mb 57f 51f
5:06pm 34 40 mph 1020.7mb 57f 51f
5:00pm 33 39 mph 1020.4mb 57f 52f
4:54pm 28 33 mph 1020.6mb 57f 51f
4:48pm 33 41 mph 1020.5mb 57f 50f
4:36pm 53 66 mph 1020.2mb 58f 49f
4:30pm 37 43 mph 1020.2mb 58f 52f
4:24pm 38 43 mph - - 51f
4:18pm 32 37 mph 1020.1mb 58f 51f
4:12pm 30 38 mph 1020.1mb 58f 51f
4:06pm 30 39 mph 1020mb 58f 50f
4:00pm 39 53 mph - - 47f
3:54pm 40 59 mph 1019.9mb 58f 50f
3:48pm 29 37 mph 1019.6mb 58f 51f
3:36pm 33 38 mph 1019.4mb 58f 51f
3:30pm 28 36 mph 1019.6mb 58f 50f
3:24pm 37 46 mph 1019.3mb 58f 49f
3:18pm 38 45 mph 1019.2mb 58f 52f
3:12pm 36 43 mph - - 52f
3:06pm 38 45 mph 1019mb 58f 51f
3:00pm 39 46 mph 1019mb 58f 51f
2:54pm 40 46 mph 1019mb 58f 51f
2:48pm 41 49 mph 1018.9mb 58f 49f
2:36pm 40 45 mph 1018.7mb 58f 50f
2:30pm 39 49 mph 1018.5mb 58f 50f
2:24pm 43 53 mph 1018.4mb 58f 49f
2:18pm 48 55 mph 1018mb 58f 51f
2:12pm 40 47 mph 1018mb 58f 52f
2:06pm 45 52 mph 1018.1mb 58f 51f
2:00pm 44 52 mph - - 51f
1:54pm 39 45 mph 1017.8mb 58f 53f
1:48pm 38 45 mph - - 53f
1:36pm 32 43 mph 1017.9mb 58f 52f
1:30pm 33 45 mph 1017.9mb 58f 51f
1:24pm 36 44 mph 1017.9mb 58f 51f
1:18pm 37 52 mph 1017.9mb 58f 50f
1:12pm 41 49 mph - - 50f
1:06pm 43 52 mph 1017.9mb 58f 49f
1:00pm 45 55 mph - - 50f
12:54pm 41 49 mph 1017.7mb 58f 50f
12:48pm 40 46 mph - - 51f
12:36pm 40 48 mph 1017.7mb 58f 48f
12:30pm 36 40 mph 1017.8mb 58f 51f
12:24pm 33 46 mph 1017.8mb 58f 51f
12:18pm 36 40 mph 1017.8mb 58f 51f
12:12pm 36 41 mph 1018mb 58f 51f
12:06pm 36 40 mph 1017.9mb 58f 51f
12:00pm 34 40 mph - - 51f
11:54am 34 41 mph 1018.2mb 58f 49f
11:48am 34 41 mph 1018.1mb 58f 51f
11:36am  -  mph 1018mb 58f -
11:30am  -  mph 1017.9mb 58f -
11:24am  -  mph 1017.9mb 58f -
11:18am  -  mph 1018mb 58f -
11:12am  -  mph 1018mb 58f -
11:06am  -  mph 1018mb 58f -
11:00am  -  mph 1018.2mb 58f -
10:54am  -  mph 1018.2mb 58f -
10:48am  -  mph 1018.2mb 58f -
10:36am 25 32 mph 1018mb 58f 52f
10:30am 28 32 mph 1018.1mb 58f 52f
10:24am 29 34 mph 1018mb 58f 52f
10:18am 30 33 mph 1017.8mb 58f 52f
10:12am 30 37 mph - - 52f
10:06am 33 38 mph 1017.3mb 58f 52f
10:00am 36 41 mph 1017.1mb 58f 52f
9:54am 34 45 mph 1016.6mb 58f 52f
9:48am 39 49 mph 1016.4mb 58f 51f
9:36am 47 54 mph 1015.9mb 58f 50f
9:30am 46 56 mph 1015.6mb 58f 49f
9:24am 49 59 mph 1015.6mb 58f 49f
9:18am 51 71 mph 1015.2mb 58f 49f
9:12am 28 49 mph 1013.4mb 58f 53f
9:06am 25 29 mph 1013.3mb 58f 53f
9:00am 24 29 mph - - 53f
8:54am 22 28 mph 1013.3mb 58f 53f
8:48am 23 26 mph 1013.5mb 58f 53f
8:36am 22 25 mph 1013.6mb 58f 53f
8:30am 21 26 mph 1013.7mb 58f 53f
8:24am 22 24 mph 1013.9mb 58f 53f
8:18am 22 26 mph 1014.1mb 57f 53f
8:12am 23 26 mph - - 53f
8:06am 22 25 mph 1014.5mb 57f 53f
8:00am 20 24 mph 1014.6mb 57f 53f
7:54am 20 22 mph - - 54f
7:48am 17 21 mph 1015.2mb 57f 54f
7:36am 16 18 mph 1015.6mb 57f 55f
7:30am 15 17 mph 1015.7mb 57f 54f
7:24am 7 14 mph 1015.8mb 57f 54f
7:18am 9 14 mph 1015.9mb 57f 54f
7:12am 6 10 mph 1015.9mb 57f 53f
7:06am 8 9 mph 1016.1mb 57f 53f
7:00am 8 10 mph 1016.2mb 57f 53f
6:54am 8 11 mph 1016.4mb 57f 53f
6:48am 9 10 mph 1016.6mb 57f 53f
6:36am 5 8 mph 1016.7mb 58f 53f
6:30am 9 14 mph 1016.7mb 58f 54f
6:24am 13 15 mph 1017.1mb 58f 53f
6:18am 11 13 mph 1016.8mb 58f 53f
6:12am 10 13 mph 1017mb 58f 53f
6:06am 11 14 mph - - 53f
6:00am 11 13 mph 1017.3mb 58f 52f
5:54am 13 14 mph 1017.3mb 58f 52f
5:48am 13 14 mph 1017.4mb 58f 52f
5:36am 10 13 mph 1017.4mb 58f 53f
5:30am 11 14 mph 1017.4mb 58f 53f
5:24am 13 14 mph 1017.4mb 58f 53f
5:18am 10 11 mph 1017.7mb 58f 53f
5:12am 9 11 mph 1018mb 58f 54f
5:06am 10 11 mph - - 53f
5:00am 9 10 mph 1017.6mb 58f 53f
4:54am 9 10 mph 1017.7mb 58f 53f
4:48am 8 9 mph 1017.8mb 58f 54f
4:36am 7 8 mph 1018.4mb 58f 53f
4:30am 6 7 mph 1018.5mb 58f 53f
4:24am 6 7 mph 1018.4mb 58f 53f
4:18am 6 7 mph 1018.5mb 58f 53f
4:12am 6 8 mph 1018.1mb 58f 53f
4:06am 6 7 mph 1018.3mb 58f 53f
4:00am 6 7 mph 1018.6mb 58f 54f
3:54am 5 6 mph 1019.1mb 58f 53f
3:48am 3 5 mph 1019.1mb 58f 54f
3:36am 5 6 mph 1019.3mb 58f 54f
3:30am 5 7 mph 1019.3mb 58f 53f
3:24am 6 7 mph 1019.4mb 58f 54f
3:18am 5 6 mph 1019.9mb 58f 54f
3:12am 6
mph
1020mb 58f 54f
3:06am 6
mph
1020.1mb 58f 54f
3:00am 6
mph
1020.2mb 58f 54f
2:54am 5 6 mph 1020.4mb 58f 54f
2:48am 5 6 mph 1020.5mb 58f 54f
2:36am 3 6 mph 1020.2mb 58f 54f
2:30am 2 5 mph 1020.4mb 58f 54f
2:24am 3 6 mph 1020.1mb 58f 54f
2:18am 5 6 mph 1020.2mb 58f 54f
2:12am 6 7 mph 1019.9mb 58f 54f
2:06am 6 8 mph 1020mb 58f 54f
2:00am 6 8 mph 1020mb 58f 54f
1:54am 6 8 mph 1020mb 58f 54f
1:48am 7 8 mph 1020.3mb 58f 54f
1:36am 3 5 mph 1021mb 58f 54f
1:30am 2 3 mph 1021.3mb 58f 54f
1:24am 1 3 mph 1021.5mb 58f 54f
1:18am 3 6 mph 1021.5mb 58f 54f
1:12am 2
mph
1021.3mb 58f 54f
1:06am 1 3 mph 1021.2mb 58f 54f
1:00am 3 5 mph 1021mb 58f 53f
12:54am 3
mph
1021.1mb 58f 53f
12:48am  -  5 mph 1021.2mb 58f 54f
12:24am  -  mph 1021.6mb 58f -
12:18am  -  mph 1021.7mb 58f -
12:12am  -  mph 1021.7mb 58f -
12:06am  -  mph 1021.8mb 58f -
12:00am  -  mph 1022.2mb 58f -
Tue 12/23 11:54pm  -  mph 1022.2mb 58f -
11:48pm  -  mph 1022.3mb 58f -
11:36pm 7 8 mph 1022.3mb 58f 54f
11:30pm 6 7 mph 1022.2mb 58f 54f
11:24pm 2 5 mph 1022.1mb 58f 54f
11:18pm 2 6 mph 1022.3mb 58f 54f
11:12pm 3 6 mph 1022.4mb 58f 53f
11:06pm 2 3 mph 1022.4mb 58f 54f
11:00pm  -  3 mph 1022.4mb 58f 53f
10:54pm 1 2 mph 1022.5mb 58f 54f
10:48pm 1 2 mph 1022.5mb 58f 54f
10:36pm 1 3 mph 1022.5mb 58f 54f
10:30pm 3 5 mph 1022.5mb 58f 53f
10:24pm 5 6 mph 1022.5mb 58f 53f
10:18pm 5 8 mph 1022.5mb 58f 53f
10:12pm 9 10 mph 1022.6mb 58f 53f
10:06pm 9 10 mph 1022.7mb 58f 54f
10:00pm 9 10 mph 1022.7mb 58f 54f
9:54pm 9 10 mph 1022.7mb 58f 54f
9:48pm 9 10 mph 1022.6mb 58f 54f
9:36pm 7 8 mph 1022.6mb 58f 54f
9:30pm 8 9 mph 1022.5mb 58f 54f
9:24pm 8
mph
1022.5mb 58f 54f
9:18pm 8 9 mph 1022.6mb 58f 54f
9:12pm 9 10 mph 1022.7mb 58f 54f
9:06pm 9
mph
1022.6mb 57f 54f
9:00pm 8 10 mph 1022.7mb 57f 53f
8:54pm 9 10 mph 1022.7mb 57f 54f
8:48pm 8 9 mph 1022.8mb 57f 54f
8:36pm 10 11 mph 1022.7mb 57f 54f
8:30pm 10 11 mph 1022.8mb 57f 54f
8:24pm 10 11 mph 1022.9mb 57f 54f
8:18pm 10 13 mph 1023mb 57f 54f
8:12pm 14 16 mph 1023.1mb 57f 54f
8:06pm 11 13 mph 1023.1mb 57f 54f
8:00pm 6
mph
1023.1mb 57f 54f
7:54pm 5 6 mph 1023.1mb 57f 54f
7:48pm 5 6 mph 1023.1mb 57f 54f
7:36pm 7 8 mph 1023.2mb 57f 54f
7:30pm 7 8 mph 1023.3mb 57f 55f
7:24pm 8 9 mph 1023.3mb 57f 55f
7:18pm 8 9 mph 1023.4mb 57f 54f
7:12pm 7 9 mph 1023.4mb 57f 54f
7:06pm 7 10 mph 1023.4mb 57f 54f
7:00pm 8 10 mph 1023.5mb 57f 55f
6:54pm 7 8 mph 1023.2mb 58f 54f
6:48pm 7 8 mph 1023.4mb 58f 54f
6:36pm 9 10 mph 1023.7mb 58f 54f
6:30pm 7 8 mph 1023.6mb 58f 55f
6:24pm 5 6 mph 1023.6mb 58f 55f
6:18pm 6
mph
1023.2mb 58f 55f
6:12pm 5 6 mph 1023.1mb 58f 54f
6:06pm 6 7 mph 1023.1mb 58f 54f
6:00pm 7 8 mph 1023.4mb 58f 54f
5:54pm 8 9 mph 1023.4mb 58f 54f
5:48pm 7
mph
1023.4mb 58f 54f
5:36pm 7 8 mph 1023.3mb 58f 54f
5:30pm 10 13 mph 1023.4mb 58f 53f
5:24pm 10 11 mph 1023.5mb 58f 54f
5:18pm 7 10 mph 1023.7mb 58f 54f
5:12pm 10 11 mph 1023.9mb 58f 54f
5:06pm 9 13 mph 1024mb 58f 54f
5:00pm 11
mph
1023.9mb 58f 54f
4:54pm 10 13 mph 1023.9mb 58f 54f
4:48pm 9 13 mph 1023.9mb 58f 54f
4:36pm 7 11 mph 1023.9mb 58f 54f
4:30pm 10 13 mph 1023.9mb 58f 54f
4:24pm 8 10 mph 1023.9mb 58f 55f
4:18pm 10 14 mph 1023.7mb 58f 55f
4:12pm 10 14 mph 1023.8mb 59f 55f
4:06pm 10 13 mph 1023.9mb 58f 55f
4:00pm 8 11 mph 1023.9mb 59f 55f
3:54pm 11 14 mph 1023.9mb 59f 55f
3:48pm 8 13 mph 1023.8mb 59f 55f
3:36pm 8 11 mph - - 55f
3:30pm 9 13 mph 1024mb 59f 55f
3:24pm 7 14 mph 1024mb 59f 55f
3:18pm 6 9 mph 1023.9mb 59f 54f
3:12pm 9 11 mph 1023.9mb 59f 54f
3:06pm 9 13 mph 1023.9mb 59f 54f
3:00pm 9 10 mph 1023.8mb 59f 54f
2:54pm 10 13 mph 1023.9mb 59f 54f
2:48pm 8 13 mph 1024mb 59f 54f
2:36pm 11 13 mph 1024mb 59f 54f
2:30pm 9 11 mph - - 54f
2:24pm 11 13 mph 1024.1mb 59f 54f
2:18pm 9 13 mph 1024.3mb 59f 54f
2:12pm 9 13 mph - - 54f
2:06pm 8 10 mph 1024.3mb 59f 55f
2:00pm 8 10 mph 1024.4mb 59f 54f
1:54pm 6 9 mph 1024.5mb 59f 54f
1:48pm 10 13 mph 1024.6mb 59f 54f
1:36pm 3 6 mph 1024.7mb 59f 54f
1:30pm 2 3 mph 1024.8mb 59f 54f
1:24pm 2 5 mph 1024.8mb 59f 54f
1:18pm 3 5 mph 1024.9mb 59f 54f
1:12pm 3 5 mph 1024.9mb 59f 54f
1:06pm 3 5 mph 1025mb 59f 54f
1:00pm 3 5 mph 1025mb 59f 53f
12:54pm 3 5 mph 1025.1mb 59f 54f
12:48pm 5 6 mph 1025.4mb 59f 53f
12:36pm 6 7 mph 1025.4mb 59f 53f
12:30pm 3 6 mph 1025.4mb 59f 53f
12:24pm 5 6 mph 1025.6mb 59f 53f
12:18pm 6 7 mph 1025.7mb 59f 53f
12:12pm 6 7 mph 1025.7mb 59f 53f
12:06pm 2 3 mph 1025.8mb 59f 53f
12:00pm 2 3 mph 1025.9mb 59f 53f
11:54am 2 6 mph 1026mb 59f 53f
11:48am 5
mph
1026.1mb 59f 53f
11:36am 3 6 mph 1026.3mb 59f 53f
11:30am 5 6 mph 1026.4mb 59f 53f
11:24am 3 8 mph 1026.5mb 59f 53f
11:18am 6 7 mph 1026.6mb 59f 53f
11:12am 6 7 mph 1026.8mb 59f 53f
11:06am 5 7 mph 1026.9mb 59f 53f
11:00am 6 7 mph - - 53f
10:54am 6 8 mph 1027.1mb 59f 53f
10:48am 6 8 mph 1027.1mb 59f 53f
10:36am 6 7 mph 1027.2mb 59f 53f
10:30am 7 8 mph 1027.1mb 59f 53f
10:24am 6 7 mph 1027.1mb 59f 53f
10:18am 8 9 mph 1027.1mb 59f 53f
10:12am 6 8 mph 1027.1mb 59f 53f
10:06am 8 9 mph 1027.1mb 59f 53f
10:00am 7 9 mph 1027mb 59f 53f
9:54am 7 9 mph 1027.1mb 59f 53f
9:48am 7 9 mph 1027.1mb 58f 53f
9:36am 6 8 mph 1027mb 58f 53f
9:30am 6 7 mph 1026.9mb 58f 53f
9:24am 6 7 mph 1026.9mb 58f 53f
9:18am 6 7 mph 1026.8mb 58f 53f
9:12am 6 8 mph 1026.7mb 58f 53f
9:06am 6 8 mph 1026.6mb 58f 53f
9:00am 6 7 mph 1026.4mb 58f 53f
8:54am 5 6 mph 1026.4mb 58f 53f
8:48am 5 6 mph 1026.3mb 58f 53f
8:36am 5
mph
1026mb 58f 53f
8:30am 2 3 mph 1026mb 58f 53f
8:24am 2 3 mph 1026mb 58f 53f
8:18am 2 3 mph 1025.8mb 58f 53f
8:12am 3 5 mph 1025.8mb 58f 53f
8:06am 3 5 mph 1025.7mb 58f 53f
8:00am 6 7 mph 1025.6mb 58f 53f
7:54am 5 8 mph 1025.6mb 58f 53f
7:48am 5 6 mph 1025.6mb 58f 53f
7:36am 6 8 mph 1025.6mb 58f 53f
7:30am 5 7 mph 1025.6mb 58f 53f